Time;durP1;ratioP1;P1;durP2;ratioP2;P2;SDS_P1;SDS_P2;PMS_P1;PMS_P2;Temp;Humidity;BMP_temperature;BMP_pressure;BME280_temperature;BME280_humidity;BME280_pressure;Samples;Min_cycle;Max_cycle;Signal;HPM_P1;HPM_P2
2022/01/27 00:01:07;;;;;;;60.03;33.25;;;;;;;-4.98;82.26;101070.17;471390;111;923176;-70
2022/01/27 00:03:43;;;;;;;64.66;34.33;;;;;;;-5.00;82.41;101072.92;469886;112;922905;-70
2022/01/27 00:04:41;;;;;;;55.73;34.03;;;;;;;-4.97;82.54;101071.88;467280;112;922504;-71
2022/01/27 00:05:48;;;;;;;52.50;33.73;;;;;;;-4.96;82.63;101076.25;468106;111;922877;-70
2022/01/27 00:06:47;;;;;;;61.88;35.84;;;;;;;-4.96;82.55;101079.73;461296;114;922897;-71
2022/01/27 00:09:29;;;;;;;59.09;33.67;;;;;;;-4.96;82.65;101073.59;469180;111;922855;-70
2022/01/27 00:11:42;;;;;;;59.10;34.68;;;;;;;-4.93;82.72;101071.56;469390;112;923283;-71
2022/01/27 00:12:43;;;;;;;61.10;35.22;;;;;;;-4.95;82.65;101068.14;470334;112;922669;-70
2022/01/27 00:13:49;;;;;;;64.86;36.94;;;;;;;-4.96;82.58;101079.73;470609;111;922565;-71
2022/01/27 00:15:03;;;;;;;62.13;36.19;;;;;;;-4.98;82.47;101073.69;470225;111;922730;-71
2022/01/27 00:16:10;;;;;;;64.09;36.98;;;;;;;-5.00;82.38;101078.24;469264;112;922650;-71
2022/01/27 00:17:13;;;;;;;63.13;37.54;;;;;;;-5.03;82.31;101075.80;467518;111;922717;-70
2022/01/27 00:18:14;;;;;;;66.44;37.94;;;;;;;-5.05;82.30;101080.36;468858;111;923533;-70
2022/01/27 00:19:13;;;;;;;69.08;39.41;;;;;;;-5.07;82.23;101074.28;469291;111;922616;-71
2022/01/27 00:20:17;;;;;;;67.66;39.36;;;;;;;-5.07;82.27;101068.97;470964;112;922597;-70
2022/01/27 00:21:27;;;;;;;66.59;38.75;;;;;;;-5.07;82.32;101071.63;470593;111;922697;-71
2022/01/27 00:22:30;;;;;;;67.24;38.81;;;;;;;-5.05;82.37;101077.70;470165;111;930569;-71
2022/01/27 00:23:34;;;;;;;69.07;39.61;;;;;;;-5.04;82.33;101066.12;471434;111;922888;-71
2022/01/27 00:24:37;;;;;;;68.74;39.46;;;;;;;-5.03;82.29;101066.97;469989;110;922910;-71
2022/01/27 00:25:40;;;;;;;74.82;40.98;;;;;;;-5.01;82.31;101075.67;469998;111;930521;-71
2022/01/27 00:26:44;;;;;;;70.42;39.62;;;;;;;-4.97;82.44;101072.73;470110;111;923521;-72
2022/01/27 00:27:47;;;;;;;70.16;39.59;;;;;;;-4.94;82.47;101072.52;472164;112;925071;-72
2022/01/27 00:28:51;;;;;;;73.39;40.44;;;;;;;-4.92;82.46;101067.95;469079;112;922949;-72
2022/01/27 00:29:54;;;;;;;70.58;41.07;;;;;;;-4.88;82.56;101061.46;468822;111;923028;-71
2022/01/27 00:30:57;;;;;;;71.06;41.11;;;;;;;-4.84;82.57;101065.61;469074;112;922628;-71
2022/01/27 00:32:00;;;;;;;75.66;42.33;;;;;;;-4.83;82.49;101074.44;467792;111;922688;-71
2022/01/27 00:33:03;;;;;;;76.41;43.04;;;;;;;-4.83;82.40;101074.44;467404;111;923122;-71
2022/01/27 00:34:07;;;;;;;75.72;42.04;;;;;;;-4.85;82.33;101074.53;466784;111;923056;-71
2022/01/27 00:35:10;;;;;;;70.95;41.42;;;;;;;-4.85;82.31;101076.38;466781;111;930493;-71
2022/01/27 00:36:15;;;;;;;72.31;41.61;;;;;;;-4.86;82.34;101074.66;467773;111;922654;-71
2022/01/27 00:37:17;;;;;;;78.55;42.26;;;;;;;-4.84;82.38;101080.70;467708;111;930442;-70
2022/01/27 00:38:20;;;;;;;70.79;41.19;;;;;;;-4.83;82.37;101079.76;467713;111;922699;-70
2022/01/27 00:39:23;;;;;;;65.28;38.94;;;;;;;-4.82;82.37;101076.15;468254;111;922942;-71
2022/01/27 00:40:27;;;;;;;72.05;39.19;;;;;;;-4.83;82.32;101075.30;468171;111;923353;-71
2022/01/27 00:41:30;;;;;;;69.64;40.17;;;;;;;-4.84;82.28;101075.39;467823;111;923467;-71
2022/01/27 00:42:34;;;;;;;66.26;39.26;;;;;;;-4.86;82.11;101072.00;467668;111;922999;-72
2022/01/27 00:43:37;;;;;;;65.78;38.46;;;;;;;-4.87;82.11;101071.15;467373;111;923294;-72
2022/01/27 00:44:40;;;;;;;65.73;37.06;;;;;;;-4.88;82.19;101066.78;468688;111;923118;-70
2022/01/27 00:45:43;;;;;;;68.11;38.13;;;;;;;-4.88;82.08;101076.56;468951;111;923100;-70
2022/01/27 00:46:46;;;;;;;68.12;38.46;;;;;;;-4.89;82.01;101078.37;467514;111;922677;-71
2022/01/27 00:47:50;;;;;;;64.97;36.13;;;;;;;-4.91;82.02;101077.64;468937;111;923155;-71
2022/01/27 00:48:53;;;;;;;60.45;36.08;;;;;;;-4.92;81.99;101070.61;470608;111;922918;-71
2022/01/27 00:49:56;;;;;;;62.18;36.41;;;;;;;-4.92;82.05;101075.93;470062;111;922486;-70
2022/01/27 00:51:01;;;;;;;65.62;36.07;;;;;;;-4.91;82.03;101072.33;468191;111;922579;-70
2022/01/27 00:52:09;;;;;;;66.26;36.47;;;;;;;-4.91;82.02;101074.13;466851;111;922888;-71
2022/01/27 00:53:27;;;;;;;59.30;36.32;;;;;;;-4.92;81.93;101077.73;467909;111;922932;-70
2022/01/27 00:54:24;;;;;;;72.24;39.91;;;;;;;-4.93;81.88;101078.69;465675;111;923007;-71
2022/01/27 00:55:28;;;;;;;67.54;37.97;;;;;;;-4.95;81.89;101080.58;466626;111;922964;-69
2022/01/27 00:57:22;;;;;;;70.56;39.49;;;;;;;-4.96;81.88;101076.25;467070;111;922684;-71
2022/01/27 00:57:59;;;;;;;74.97;41.68;;;;;;;-4.98;81.88;101078.15;449300;111;923369;-70
2022/01/27 00:59:59;;;;;;;67.02;38.72;;;;;;;-4.99;81.83;101076.44;466703;111;922806;-70
2022/01/27 01:01:04;;;;;;;71.28;38.60;;;;;;;-5.00;81.87;101078.24;467140;111;922904;-71
2022/01/27 01:02:15;;;;;;;70.88;40.32;;;;;;;-5.00;81.79;101082.70;467241;111;922605;-71
2022/01/27 01:03:22;;;;;;;59.40;36.67;;;;;;;-5.02;81.81;101071.34;466105;111;922554;-72
2022/01/27 01:04:23;;;;;;;70.17;41.12;;;;;;;-5.02;81.75;101074.00;466678;111;922546;-70
2022/01/27 01:06:50;;;;;;;71.28;40.17;;;;;;;-5.03;81.77;101082.92;468496;111;922660;-71
2022/01/27 01:07:37;;;;;;;71.67;41.48;;;;;;;-5.03;81.73;101080.27;455240;111;922972;-71
2022/01/27 01:09:31;;;;;;;71.26;41.02;;;;;;;-5.05;81.77;101078.56;467931;111;922572;-71
2022/01/27 01:15:49;;;;;;;70.56;39.13;;;;;;;-4.95;81.78;101070.80;471510;110;947239;-71
2022/01/27 01:17:02;;;;;;;70.84;39.60;;;;;;;-5.04;81.87;101071.44;463844;113;922694;-70
2022/01/27 01:18:23;;;;;;;74.95;40.59;;;;;;;-5.02;81.87;101063.36;462358;113;923001;-71
2022/01/27 01:21:40;;;;;;;67.86;39.79;;;;;;;-5.03;81.70;101077.61;455165;115;922846;-70
2022/01/27 01:29:28;;;;;;;70.25;37.54;;;;;;;-5.09;81.73;101074.41;455302;115;922598;-71
2022/01/27 01:30:46;;;;;;;71.66;38.58;;;;;;;-5.09;81.84;101077.06;454791;116;922522;-71
2022/01/27 01:32:14;;;;;;;67.59;38.67;;;;;;;-5.09;81.89;101073.56;452588;115;923100;-71
2022/01/27 01:33:04;;;;;;;68.66;36.96;;;;;;;-5.08;82.03;101075.27;451965;114;922654;-71
2022/01/27 01:34:19;;;;;;;70.10;38.95;;;;;;;-5.05;82.22;101077.70;445876;118;922689;-71
2022/01/27 01:35:26;;;;;;;71.42;39.76;;;;;;;-5.05;82.25;101070.58;447254;116;923214;-70
2022/01/27 01:36:37;;;;;;;69.82;40.76;;;;;;;-5.04;82.23;101084.73;454372;115;922734;-71
2022/01/27 01:37:41;;;;;;;69.74;39.88;;;;;;;-5.04;82.21;101074.09;454066;115;923195;-70
2022/01/27 01:38:45;;;;;;;71.30;40.39;;;;;;;-5.04;82.17;101074.09;455159;115;922637;-71
2022/01/27 01:39:48;;;;;;;72.11;40.30;;;;;;;-5.03;82.30;101077.61;454549;115;922465;-71
2022/01/27 01:40:53;;;;;;;67.34;39.28;;;;;;;-5.03;82.16;101073.14;453995;115;922889;-71
2022/01/27 01:41:58;;;;;;;61.57;36.91;;;;;;;-5.01;82.15;101070.36;455116;116;922856;-69
2022/01/27 01:43:01;;;;;;;70.08;38.92;;;;;;;-5.00;82.15;101070.27;454861;115;930735;-71
2022/01/27 01:44:05;;;;;;;70.56;39.19;;;;;;;-4.98;82.13;101072.83;445674;117;923176;-71
2022/01/27 01:45:11;;;;;;;63.58;38.14;;;;;;;-4.96;82.16;101071.75;454623;115;922859;-71
2022/01/27 01:46:15;;;;;;;66.54;38.01;;;;;;;-4.96;82.14;101077.07;455200;115;923047;-71
2022/01/27 01:47:20;;;;;;;67.51;37.81;;;;;;;-4.95;82.08;101083.25;455462;115;922518;-71
2022/01/27 01:48:23;;;;;;;62.65;36.58;;;;;;;-4.95;82.11;101081.44;455525;116;922592;-71
2022/01/27 01:49:29;;;;;;;65.22;37.65;;;;;;;-4.93;82.16;101078.69;455240;115;922686;-72
2022/01/27 01:50:32;;;;;;;73.61;40.87;;;;;;;-4.91;82.15;101084.77;454524;115;922637;-72
2022/01/27 01:51:37;;;;;;;91.87;46.24;;;;;;;-4.88;82.23;101081.88;455250;114;922602;-71
2022/01/27 01:52:43;;;;;;;73.84;40.88;;;;;;;-4.84;82.38;101086.88;454783;115;922582;-71
2022/01/27 01:53:46;;;;;;;77.48;42.93;;;;;;;-4.79;82.42;101082.09;455364;114;922664;-70
2022/01/27 01:54:49;;;;;;;70.28;40.51;;;;;;;-4.77;82.37;101077.54;455682;115;922683;-70
2022/01/27 01:55:52;;;;;;;71.26;42.27;;;;;;;-4.74;82.44;101079.16;455917;116;923257;-70
2022/01/27 01:56:56;;;;;;;83.87;47.78;;;;;;;-4.69;82.60;101077.87;455301;114;922763;-71
2022/01/27 01:58:00;;;;;;;94.30;49.51;;;;;;;-4.62;82.80;101081.80;454777;114;924856;-71
2022/01/27 01:59:05;;;;;;;87.11;48.66;;;;;;;-4.53;82.98;101082.14;454674;115;922805;-71
2022/01/27 02:00:11;;;;;;;96.41;49.75;;;;;;;-4.46;83.11;101078.92;454958;115;923089;-70
2022/01/27 02:01:16;;;;;;;102.57;55.81;;;;;;;-4.37;83.27;101088.09;455240;115;922563;-70
2022/01/27 02:02:21;;;;;;;107.72;58.60;;;;;;;-4.29;83.49;101086.58;464849;113;922624;-69
2022/01/27 02:03:24;;;;;;;114.99;60.46;;;;;;;-4.22;83.55;101082.53;465131;112;922775;-71
2022/01/27 02:04:27;;;;;;;107.33;57.75;;;;;;;-4.14;83.65;101083.81;464545;112;922618;-69
2022/01/27 02:05:36;;;;;;;78.65;43.63;;;;;;;-4.08;83.79;101086.87;465101;112;923103;-70
2022/01/27 02:06:44;;;;;;;73.68;42.59;;;;;;;-4.05;83.69;101089.33;464329;112;922469;-70
2022/01/27 02:08:10;;;;;;;70.76;41.87;;;;;;;-4.06;83.52;101082.30;464774;112;922980;-71
2022/01/27 02:18:07;;;;;;;65.95;37.58;;;;;;;-4.39;82.81;101087.33;465313;113;922626;-71
2022/01/27 02:19:08;;;;;;;67.88;39.87;;;;;;;-4.40;82.89;101089.14;465483;113;922532;-71
2022/01/27 02:20:12;;;;;;;70.49;40.60;;;;;;;-4.39;83.03;101079.35;465863;113;922821;-70
2022/01/27 02:21:15;;;;;;;72.00;40.88;;;;;;;-4.35;83.19;101094.14;465609;113;923006;-69
2022/01/27 02:22:19;;;;;;;84.69;49.46;;;;;;;-4.32;83.25;101086.81;464736;112;922662;-70
2022/01/27 02:23:23;;;;;;;93.51;51.03;;;;;;;-4.31;83.22;101087.66;465332;112;922729;-70
2022/01/27 02:24:33;;;;;;;77.51;45.38;;;;;;;-4.31;83.02;101088.52;464715;112;922812;-71
2022/01/27 02:25:33;;;;;;;87.66;49.77;;;;;;;-4.35;82.92;101084.34;463301;112;922906;-67
2022/01/27 02:26:36;;;;;;;98.58;55.54;;;;;;;-4.38;82.79;101089.05;465138;112;922614;-70
2022/01/27 02:27:39;;;;;;;99.85;56.83;;;;;;;-4.40;82.76;101082.96;457406;113;922804;-73
2022/01/27 02:28:42;;;;;;;98.32;56.04;;;;;;;-4.44;82.59;101084.14;456689;113;923260;-68
2022/01/27 02:29:46;;;;;;;91.72;52.34;;;;;;;-4.44;82.66;101086.80;463734;112;922669;-71
2022/01/27 02:30:49;;;;;;;89.84;51.27;;;;;;;-4.44;82.74;101084.14;464946;112;922686;-71
2022/01/27 02:31:54;;;;;;;84.02;47.85;;;;;;;-4.42;82.84;101085.76;465097;112;930453;-70
2022/01/27 02:32:59;;;;;;;73.48;44.93;;;;;;;-4.37;83.02;101083.63;464846;112;922538;-70
2022/01/27 02:34:02;;;;;;;78.08;44.10;;;;;;;-4.30;83.18;101086.71;465447;113;923110;-67
2022/01/27 02:35:06;;;;;;;70.69;42.62;;;;;;;-4.24;83.34;101087.11;464497;112;930159;-70
2022/01/27 02:36:09;;;;;;;73.29;41.26;;;;;;;-4.18;83.46;101088.48;463811;112;922585;-69
2022/01/27 02:37:13;;;;;;;79.99;42.48;;;;;;;-4.12;83.56;101088.05;465629;113;923448;-70
2022/01/27 02:38:16;;;;;;;73.40;40.29;;;;;;;-4.07;83.63;101087.72;464457;112;922630;-69
2022/01/27 02:39:19;;;;;;;71.18;40.68;;;;;;;-4.04;83.62;101091.04;464616;113;930626;-69
2022/01/27 02:40:34;;;;;;;69.07;40.15;;;;;;;-4.03;83.57;101089.23;465353;113;923174;-71
2022/01/27 02:41:57;;;;;;;68.17;39.07;;;;;;;-4.05;83.43;101084.00;464250;112;922841;-69
2022/01/27 02:43:03;;;;;;;64.51;36.77;;;;;;;-4.08;83.23;101089.53;464980;113;922501;-70
2022/01/27 02:44:06;;;;;;;69.43;38.43;;;;;;;-4.13;83.02;101091.67;464770;112;922683;-71
2022/01/27 02:45:16;;;;;;;64.63;37.79;;;;;;;-4.17;82.93;101089.34;465229;113;922619;-68
2022/01/27 02:46:32;;;;;;;64.61;37.56;;;;;;;-4.22;82.90;101093.19;464822;112;922520;-70
2022/01/27 02:47:36;;;;;;;63.18;36.52;;;;;;;-4.25;82.92;101089.91;465093;112;922975;-69
2022/01/27 02:48:39;;;;;;;59.00;34.92;;;;;;;-4.26;82.99;101081.06;464759;112;922655;-69
2022/01/27 02:49:43;;;;;;;54.38;34.09;;;;;;;-4.25;83.00;101092.56;465460;113;922950;-70
2022/01/27 02:50:46;;;;;;;55.08;34.69;;;;;;;-4.24;83.03;101096.90;464809;113;922948;-69
2022/01/27 02:51:49;;;;;;;58.29;34.37;;;;;;;-4.26;82.97;101091.70;465522;112;922662;-72
2022/01/27 02:52:52;;;;;;;60.54;34.89;;;;;;;-4.27;82.88;101091.81;465636;113;922746;-69
2022/01/27 02:53:57;;;;;;;50.17;32.21;;;;;;;-4.35;82.53;101088.81;465083;112;923190;-69
2022/01/27 02:55:00;;;;;;;47.95;31.56;;;;;;;-4.35;82.53;101088.81;464210;112;922537;-68
2022/01/27 02:56:03;;;;;;;52.87;31.30;;;;;;;-4.41;82.46;101091.94;464952;112;922544;-68
2022/01/27 02:57:07;;;;;;;50.63;33.08;;;;;;;-4.47;82.28;101092.36;464836;112;922673;-69
2022/01/27 02:58:10;;;;;;;51.68;32.39;;;;;;;-4.54;82.20;101091.92;465321;113;930384;-69
2022/01/27 02:59:16;;;;;;;59.43;34.78;;;;;;;-4.60;82.08;101095.00;464969;113;922606;-69
2022/01/27 03:00:19;;;;;;;64.52;36.13;;;;;;;-4.67;81.96;101099.03;464909;112;922923;-71
2022/01/27 03:01:22;;;;;;;64.14;35.24;;;;;;;-4.73;81.98;101105.63;465130;112;922702;-69
2022/01/27 03:02:25;;;;;;;58.63;35.84;;;;;;;-4.77;81.94;101096.16;465116;112;922879;-70
2022/01/27 03:03:29;;;;;;;61.66;36.44;;;;;;;-4.79;81.98;101099.86;464881;112;923059;-68
2022/01/27 03:04:34;;;;;;;64.92;37.04;;;;;;;-4.78;82.08;101101.57;464233;112;922647;-68
2022/01/27 03:05:37;;;;;;;61.96;37.31;;;;;;;-4.77;82.18;101096.16;464803;112;922964;-70
2022/01/27 03:06:40;;;;;;;62.27;35.56;;;;;;;-4.76;82.12;101099.67;465174;111;923381;-69
2022/01/27 03:07:47;;;;;;;58.33;35.59;;;;;;;-4.76;82.10;101103.19;464927;113;923063;-70
2022/01/27 03:08:48;;;;;;;57.04;33.98;;;;;;;-4.77;82.04;101101.48;465171;112;922854;-71
2022/01/27 03:09:54;;;;;;;60.78;35.93;;;;;;;-4.80;82.02;101101.70;465157;113;922539;-69
2022/01/27 03:11:06;;;;;;;46.92;31.09;;;;;;;-4.82;81.97;101102.75;465366;113;922714;-69
2022/01/27 03:12:13;;;;;;;54.90;31.98;;;;;;;-4.85;81.91;101095.81;464485;112;922653;-69
2022/01/27 03:13:16;;;;;;;53.13;32.84;;;;;;;-4.86;81.99;101094.13;464909;113;922525;-71
2022/01/27 03:14:23;;;;;;;45.63;32.15;;;;;;;-4.88;81.94;101093.38;465110;112;922744;-69
2022/01/27 03:15:28;;;;;;;53.48;31.90;;;;;;;-4.91;81.89;101092.74;465691;112;930454;-70
2022/01/27 03:16:38;;;;;;;50.71;33.43;;;;;;;-4.82;81.99;101092.96;471000;110;947149;-70
2022/01/27 03:17:41;;;;;;;48.43;31.66;;;;;;;-4.94;82.01;101088.47;462229;113;923112;-68
2022/01/27 03:18:44;;;;;;;54.33;31.77;;;;;;;-4.95;81.93;101093.88;461269;113;930389;-69
2022/01/27 03:19:48;;;;;;;51.30;32.57;;;;;;;-4.96;81.94;101092.20;454442;115;923004;-71
2022/01/27 03:20:51;;;;;;;47.62;31.66;;;;;;;-5.00;81.91;101088.88;454518;115;922502;-67
2022/01/27 03:21:55;;;;;;;48.24;30.97;;;;;;;-5.01;81.97;101083.66;455340;114;930485;-68
2022/01/27 03:23:02;;;;;;;54.50;32.09;;;;;;;-5.00;82.08;101090.69;454987;116;922665;-69
2022/01/27 03:24:06;;;;;;;49.36;32.72;;;;;;;-4.99;82.16;101082.61;452766;115;922544;-69
2022/01/27 03:25:09;;;;;;;48.11;31.97;;;;;;;-4.98;82.17;101084.32;453069;116;923000;-68
2022/01/27 03:26:13;;;;;;;51.86;32.48;;;;;;;-4.94;82.25;101092.94;454733;116;923211;-70
2022/01/27 03:27:21;;;;;;;51.60;33.79;;;;;;;-4.94;82.23;101084.95;454038;116;922611;-69
2022/01/27 03:28:25;;;;;;;50.86;33.01;;;;;;;-4.93;82.22;101084.86;451806;115;923169;-68
2022/01/27 03:29:26;;;;;;;52.61;34.73;;;;;;;-4.94;82.18;101090.27;439775;118;922790;-69
2022/01/27 03:30:29;;;;;;;46.61;31.56;;;;;;;-4.94;82.15;101085.81;436768;120;923243;-68
2022/01/27 03:31:33;;;;;;;46.31;32.38;;;;;;;-4.94;82.12;101092.94;454850;116;922744;-69
2022/01/27 03:32:36;;;;;;;46.31;32.36;;;;;;;-4.95;82.16;101093.88;453491;115;923033;-70
2022/01/27 03:33:39;;;;;;;50.32;31.56;;;;;;;-4.95;82.14;101089.42;453906;116;922698;-68
2022/01/27 03:34:42;;;;;;;49.03;32.01;;;;;;;-4.96;82.01;101089.55;454462;116;922532;-71
2022/01/27 03:35:45;;;;;;;55.91;34.37;;;;;;;-4.98;81.98;101084.32;454411;116;923011;-69
2022/01/27 03:36:49;;;;;;;62.08;38.81;;;;;;;-5.00;81.98;101096.00;453897;115;922859;-69
2022/01/27 03:37:52;;;;;;;61.88;41.74;;;;;;;-5.00;81.93;101093.34;453202;115;922584;-70
2022/01/27 03:38:56;;;;;;;68.69;42.03;;;;;;;-5.02;81.94;101093.47;454667;116;922736;-68
2022/01/27 03:39:59;;;;;;;74.19;42.12;;;;;;;-5.02;82.07;101096.12;455232;116;922629;-69
2022/01/27 03:41:07;;;;;;;70.22;40.50;;;;;;;-5.00;82.09;101096.00;445425;117;922761;-68
2022/01/27 03:42:11;;;;;;;67.74;40.31;;;;;;;-4.99;82.13;101095.91;455043;116;922983;-68
2022/01/27 03:43:14;;;;;;;65.97;40.59;;;;;;;-4.96;82.21;101101.00;455090;115;922620;-69
2022/01/27 03:44:19;;;;;;;69.65;41.46;;;;;;;-4.94;82.18;101096.45;454932;115;922992;-69
2022/01/27 03:45:22;;;;;;;62.34;38.56;;;;;;;-4.92;82.17;101099.87;446144;117;922718;-69
2022/01/27 03:46:27;;;;;;;59.70;37.35;;;;;;;-4.90;82.19;101095.27;454489;116;923024;-69
2022/01/27 03:47:30;;;;;;;55.23;35.56;;;;;;;-4.89;82.04;101093.47;455614;116;922723;-69
2022/01/27 03:48:33;;;;;;;54.30;33.84;;;;;;;-4.90;81.98;101102.40;444290;118;922561;-67
2022/01/27 03:49:36;;;;;;;49.59;33.10;;;;;;;-4.91;81.92;101090.94;453159;115;922606;-69
2022/01/27 03:50:39;;;;;;;48.91;32.44;;;;;;;-4.92;81.92;101094.55;439296;118;922580;-70
2022/01/27 03:51:42;;;;;;;54.36;32.15;;;;;;;-4.91;81.89;101088.28;454048;115;923191;-70
2022/01/27 03:52:46;;;;;;;46.64;29.54;;;;;;;-4.91;81.95;101087.42;453378;115;922716;-69
2022/01/27 03:53:50;;;;;;;39.89;27.48;;;;;;;-4.91;81.95;101093.59;453020;115;922883;-68
2022/01/27 03:54:53;;;;;;;36.13;25.57;;;;;;;-4.90;81.89;101095.27;453217;116;922568;-70
2022/01/27 03:55:57;;;;;;;35.11;25.55;;;;;;;-4.91;81.89;101093.59;440966;118;922660;-68
2022/01/27 03:57:00;;;;;;;34.34;26.25;;;;;;;-4.92;81.88;101094.55;442823;116;922837;-69
2022/01/27 03:58:04;;;;;;;41.46;26.98;;;;;;;-4.92;81.83;101091.03;453575;115;923084;-70
2022/01/27 03:59:07;;;;;;;39.28;26.96;;;;;;;-4.93;81.87;101092.84;454102;115;930600;-70
2022/01/27 04:00:11;;;;;;;38.39;26.53;;;;;;;-4.94;81.92;101093.78;454442;116;922752;-71
2022/01/27 04:01:17;;;;;;;38.77;26.86;;;;;;;-4.92;82.04;101097.20;453990;115;930545;-70
2022/01/27 04:02:20;;;;;;;35.48;25.72;;;;;;;-4.90;82.07;101099.73;453751;116;922764;-72
2022/01/27 04:03:28;;;;;;;40.22;26.09;;;;;;;-4.88;82.16;101096.03;454210;115;922850;-69
2022/01/27 04:04:30;;;;;;;41.13;27.77;;;;;;;-4.83;82.20;101098.37;454246;115;928535;-71
2022/01/27 04:05:37;;;;;;;35.21;26.14;;;;;;;-4.82;82.19;101103.60;453915;115;922655;-70
2022/01/27 04:06:41;;;;;;;40.07;25.83;;;;;;;-4.81;82.15;101102.66;454414;116;924123;-67
2022/01/27 04:07:44;;;;;;;40.68;25.84;;;;;;;-4.81;82.06;101101.80;455226;115;923154;-68
2022/01/27 04:08:48;;;;;;;43.15;28.52;;;;;;;-4.82;82.02;101106.27;455339;115;923110;-69
2022/01/27 04:09:51;;;;;;;44.04;27.42;;;;;;;-4.82;81.99;101103.60;454026;115;923248;-69
2022/01/27 04:10:54;;;;;;;43.65;27.26;;;;;;;-4.82;82.03;101100.94;455208;116;922648;-68
2022/01/27 04:11:57;;;;;;;41.68;27.22;;;;;;;-4.82;81.98;101098.28;447290;118;922581;-67
2022/01/27 04:13:01;;;;;;;43.87;28.57;;;;;;;-4.81;82.04;101101.80;453737;115;922745;-68
2022/01/27 04:14:04;;;;;;;47.62;28.98;;;;;;;-4.80;82.07;101096.38;454619;115;923448;-70
2022/01/27 04:15:08;;;;;;;43.84;30.82;;;;;;;-4.80;82.07;101099.04;452925;116;922688;-70
2022/01/27 04:16:11;;;;;;;45.34;29.75;;;;;;;-4.80;82.03;101100.84;454393;115;922649;-67
2022/01/27 04:17:14;;;;;;;44.41;28.15;;;;;;;-4.81;82.04;101101.80;454451;115;925903;-70
2022/01/27 04:18:17;;;;;;;44.09;29.74;;;;;;;-4.82;81.95;101102.75;454059;116;923011;-70
2022/01/27 04:19:20;;;;;;;48.71;31.24;;;;;;;-4.82;82.00;101097.42;454513;116;922540;-69
2022/01/27 04:20:26;;;;;;;50.96;31.28;;;;;;;-4.82;82.08;101100.94;453139;116;923262;-70
2022/01/27 04:21:29;;;;;;;41.54;29.16;;;;;;;-4.82;82.03;101100.09;453466;115;922416;-69
2022/01/27 04:22:33;;;;;;;49.91;31.02;;;;;;;-4.83;82.00;101095.72;453814;115;922588;-66
2022/01/27 04:23:36;;;;;;;59.15;33.54;;;;;;;-4.82;82.05;101106.27;453384;116;922871;-70
2022/01/27 04:24:39;;;;;;;55.61;34.22;;;;;;;-4.80;82.08;101098.19;454032;116;922654;-68
2022/01/27 04:25:42;;;;;;;67.38;41.01;;;;;;;-4.80;82.10;101104.36;454440;115;923132;-69
2022/01/27 04:26:50;;;;;;;73.71;43.29;;;;;;;-4.80;82.07;101100.84;445167;117;923392;-70
2022/01/27 04:27:55;;;;;;;68.14;41.14;;;;;;;-4.79;82.17;101102.52;454226;116;922602;-71
2022/01/27 04:28:56;;;;;;;69.15;41.25;;;;;;;-4.77;82.28;101105.94;454138;115;922575;-68
2022/01/27 04:29:59;;;;;;;72.62;40.92;;;;;;;-4.75;82.36;101109.36;454141;115;922975;-69
2022/01/27 04:31:06;;;;;;;68.92;40.50;;;;;;;-4.74;82.37;101117.22;454582;115;922710;-71
2022/01/27 04:32:10;;;;;;;65.57;39.29;;;;;;;-4.72;82.34;101117.97;455297;116;930675;-68
2022/01/27 04:33:13;;;;;;;65.63;38.52;;;;;;;-4.72;82.31;101123.30;454789;116;923296;-70
2022/01/27 04:34:16;;;;;;;61.65;35.17;;;;;;;-4.73;82.23;101121.59;454277;115;922778;-69
2022/01/27 04:35:22;;;;;;;59.26;36.26;;;;;;;-4.74;82.16;101119.88;454388;114;922488;-71
2022/01/27 04:36:29;;;;;;;60.16;36.35;;;;;;;-4.74;82.12;101121.72;455046;116;922778;-69
2022/01/27 04:37:34;;;;;;;66.37;37.58;;;;;;;-4.75;82.08;101130.64;454186;115;923157;-71
2022/01/27 04:39:29;;;;;;;69.60;40.61;;;;;;;-4.76;82.11;101124.47;453278;116;923083;-68
2022/01/27 04:39:55;;;;;;;69.55;38.42;;;;;;;-4.74;82.23;101127.03;448285;116;923371;-66
2022/01/27 04:42:11;;;;;;;70.74;40.64;;;;;;;-4.70;82.26;101129.38;452850;115;922808;-70
2022/01/27 04:43:19;;;;;;;62.30;38.99;;;;;;;-4.71;82.24;101135.64;452668;116;922709;-65
2022/01/27 04:45:35;;;;;;;63.69;37.55;;;;;;;-4.74;82.09;101127.85;454561;115;922610;-71
2022/01/27 04:46:43;;;;;;;67.22;39.27;;;;;;;-4.76;82.00;101136.91;453709;115;922484;-70
2022/01/27 04:47:43;;;;;;;68.03;40.70;;;;;;;-4.79;81.92;101137.95;452376;116;923213;-68
2022/01/27 04:48:51;;;;;;;67.87;39.62;;;;;;;-4.81;81.99;101131.05;452694;116;923020;-68
2022/01/27 04:49:50;;;;;;;68.06;39.50;;;;;;;-4.82;81.96;101129.34;453082;115;922672;-67
2022/01/27 04:50:54;;;;;;;71.69;39.42;;;;;;;-4.83;81.98;101133.81;453932;116;922690;-69
2022/01/27 04:51:57;;;;;;;63.71;39.44;;;;;;;-4.84;82.04;101137.42;453488;115;922691;-66
2022/01/27 04:53:03;;;;;;;61.34;37.11;;;;;;;-4.84;82.06;101136.56;454418;116;922588;-70
2022/01/27 04:54:18;;;;;;;63.37;37.29;;;;;;;-4.85;82.00;101141.02;453635;116;922577;-68
2022/01/27 04:55:18;;;;;;;;;;;;;;;-4.85;81.98;101140.20;457001;115;922155;-69
2022/01/27 04:56:23;;;;;;;55.96;31.87;;;;;;;-4.87;81.93;101137.64;454756;116;922252;-70
2022/01/27 04:57:28;;;;;;;60.16;35.64;;;;;;;-4.89;81.97;101144.00;454932;116;923175;-66
2022/01/27 04:58:33;;;;;;;62.91;36.28;;;;;;;-4.91;82.04;101138.81;446338;117;923177;-66
2022/01/27 04:59:40;;;;;;;61.07;36.86;;;;;;;-4.91;82.02;101149.44;445960;118;922657;-70
2022/01/27 05:00:43;;;;;;;65.27;37.46;;;;;;;-4.90;82.07;101140.48;453671;115;922567;-70
2022/01/27 05:01:51;;;;;;;61.67;37.25;;;;;;;-4.90;82.09;101144.95;454653;116;922563;-70
2022/01/27 05:02:57;;;;;;;58.61;33.59;;;;;;;-4.90;82.13;101156.44;453970;115;923209;-67
2022/01/27 05:04:03;;;;;;;57.73;33.97;;;;;;;-4.87;82.18;101147.42;453630;115;922846;-68
2022/01/27 05:05:03;;;;;;;62.28;36.05;;;;;;;-4.87;82.20;101145.62;454131;116;922638;-68
2022/01/27 05:06:08;;;;;;;66.40;38.48;;;;;;;-4.86;82.28;101143.81;450697;115;922549;-67
2022/01/27 05:07:11;;;;;;;76.42;44.05;;;;;;;-4.85;82.36;101146.34;452870;115;922912;-69
2022/01/27 05:08:19;;;;;;;74.94;44.21;;;;;;;-4.83;82.37;101143.59;454286;115;922743;-68
2022/01/27 05:09:24;;;;;;;74.07;44.61;;;;;;;-4.84;82.33;101147.20;454009;115;922695;-66
2022/01/27 05:10:32;;;;;;;79.35;43.57;;;;;;;-4.85;82.33;101151.66;444166;118;922838;-67
2022/01/27 05:11:36;;;;;;;72.13;41.96;;;;;;;-4.87;82.31;101145.62;444843;116;923106;-69
2022/01/27 05:12:48;;;;;;;73.89;41.42;;;;;;;-4.88;82.21;101146.56;453279;116;922747;-69
2022/01/27 05:13:54;;;;;;;75.17;41.13;;;;;;;-4.89;82.16;101146.66;439056;118;922934;-67
2022/01/27 05:14:54;;;;;;;71.56;39.62;;;;;;;-4.90;82.15;101148.46;453282;116;922644;-69
2022/01/27 05:15:57;;;;;;;65.57;38.94;;;;;;;-4.90;82.28;101155.58;454596;115;923126;-67
2022/01/27 05:17:03;;;;;;;66.26;39.37;;;;;;;-4.87;82.42;101150.94;454126;116;924649;-67
2022/01/27 05:18:05;;;;;;;64.87;37.15;;;;;;;-4.85;82.43;101159.64;454200;116;922585;-70
2022/01/27 05:19:09;;;;;;;70.08;39.46;;;;;;;-4.84;82.40;101156.03;437343;118;930452;-66
2022/01/27 05:20:12;;;;;;;64.90;37.82;;;;;;;-4.83;82.38;101157.74;454446;115;923124;-69
2022/01/27 05:21:15;;;;;;;67.44;39.82;;;;;;;-4.84;82.40;101153.38;454140;116;923112;-71
2022/01/27 05:22:18;;;;;;;64.80;38.23;;;;;;;-4.84;82.35;101156.03;454935;116;922932;-68
2022/01/27 05:23:21;;;;;;;60.97;36.74;;;;;;;-4.84;82.33;101160.50;455047;115;922608;-68
2022/01/27 05:24:24;;;;;;;54.34;33.61;;;;;;;-4.84;82.37;101158.70;454332;115;923005;-67